createdAt,value
2022-08-22T00:00:13.723Z,100.00
2022-08-22T00:02:47.770Z,93.71
2022-08-22T00:03:16.175Z,100.00
2022-08-22T00:03:16.195Z,100.00
2022-08-22T00:05:48.176Z,100.00
2022-08-22T00:08:26.299Z,100.00
2022-08-22T00:11:02.830Z,100.00
2022-08-22T00:13:38.000Z,100.00
2022-08-22T00:16:14.208Z,100.00
2022-08-22T00:18:49.642Z,100.00
2022-08-22T00:21:23.045Z,100.00
2022-08-22T00:23:56.308Z,100.00
2022-08-22T00:26:34.987Z,100.00
2022-08-22T00:29:06.547Z,100.00
2022-08-22T00:31:37.595Z,100.00
2022-08-22T00:34:10.284Z,100.00
2022-08-22T00:36:43.320Z,100.00
2022-08-22T00:39:26.564Z,100.00
2022-08-22T00:42:15.073Z,100.00
2022-08-22T00:45:32.338Z,100.00
2022-08-22T00:48:24.266Z,100.00
2022-08-22T00:51:24.798Z,100.00
2022-08-22T00:53:57.237Z,100.00
2022-08-22T00:56:51.521Z,100.00
2022-08-22T00:59:48.724Z,100.00
2022-08-22T01:02:31.765Z,100.00
2022-08-22T01:05:23.514Z,100.00
2022-08-22T01:08:05.958Z,100.00
2022-08-22T01:10:46.012Z,100.00
2022-08-22T01:13:36.572Z,100.00
2022-08-22T01:16:22.092Z,100.00
2022-08-22T01:19:28.087Z,100.00
2022-08-22T01:22:42.780Z,100.00
2022-08-22T01:26:14.851Z,100.00
2022-08-22T01:29:18.567Z,100.00
2022-08-22T01:32:44.622Z,100.00
2022-08-22T01:35:51.254Z,100.00
2022-08-22T01:38:36.576Z,100.00
2022-08-22T01:41:21.020Z,100.00
2022-08-22T01:44:05.085Z,100.00
2022-08-22T01:46:42.755Z,100.00
2022-08-22T01:49:18.896Z,100.00
2022-08-22T01:51:54.666Z,100.00
2022-08-22T01:54:32.241Z,100.00
2022-08-22T01:57:03.210Z,100.00
2022-08-22T01:59:42.364Z,100.00
2022-08-22T02:02:26.256Z,100.00
2022-08-22T02:04:59.134Z,100.00
2022-08-22T02:07:35.871Z,100.00
2022-08-22T02:10:13.807Z,100.00
2022-08-22T02:12:46.849Z,100.00
2022-08-22T02:15:22.750Z,100.00
2022-08-22T02:18:18.885Z,100.00
2022-08-22T02:21:00.248Z,100.00
2022-08-22T02:23:37.907Z,100.00
2022-08-22T02:26:10.615Z,100.00
2022-08-22T02:28:56.616Z,100.00
2022-08-22T02:31:36.896Z,100.00
2022-08-22T02:34:21.275Z,100.00
2022-08-22T02:36:55.045Z,100.00
2022-08-22T02:39:34.578Z,100.00
2022-08-22T02:42:15.842Z,100.00
2022-08-22T02:44:53.551Z,100.00
2022-08-22T02:47:32.879Z,100.00
2022-08-22T02:50:12.812Z,100.00
2022-08-22T02:52:54.034Z,100.00
2022-08-22T02:55:36.059Z,100.00
2022-08-22T02:58:12.185Z,100.00
2022-08-22T03:00:48.263Z,100.00
2022-08-22T03:03:20.600Z,100.00
2022-08-22T03:06:01.409Z,100.00
2022-08-22T03:08:32.183Z,100.00
2022-08-22T03:11:12.082Z,100.00
2022-08-22T03:13:53.431Z,100.00
2022-08-22T03:16:27.247Z,100.00
2022-08-22T03:19:00.696Z,100.00
2022-08-22T03:21:34.729Z,100.00
2022-08-22T03:24:11.467Z,100.00
2022-08-22T03:26:49.282Z,100.00
2022-08-22T03:29:21.498Z,100.00
2022-08-22T03:32:10.387Z,100.00
2022-08-22T03:34:39.443Z,100.00
2022-08-22T03:37:16.586Z,100.00
2022-08-22T03:39:55.774Z,100.00
2022-08-22T03:43:04.534Z,100.00
2022-08-22T03:46:05.056Z,100.00
2022-08-22T03:48:56.092Z,100.00
2022-08-22T03:51:33.759Z,100.00
2022-08-22T03:54:30.653Z,100.00
2022-08-22T03:57:23.206Z,100.00
2022-08-22T04:00:10.519Z,100.00
2022-08-22T04:03:13.284Z,100.00
2022-08-22T04:06:12.751Z,100.00
2022-08-22T04:08:58.839Z,100.00
2022-08-22T04:11:49.787Z,100.00
2022-08-22T04:14:57.934Z,100.00
2022-08-22T04:17:55.548Z,100.00
2022-08-22T04:20:45.809Z,100.00
2022-08-22T04:23:36.550Z,100.00
2022-08-22T04:26:12.937Z,100.00
2022-08-22T04:28:46.390Z,100.00
2022-08-22T04:31:17.569Z,100.00
2022-08-22T04:33:51.550Z,100.00
2022-08-22T04:36:26.306Z,100.00
2022-08-22T04:39:00.533Z,100.00
2022-08-22T04:41:38.511Z,100.00
2022-08-22T04:44:13.453Z,100.00
2022-08-22T04:46:46.459Z,100.00
2022-08-22T04:49:24.445Z,100.00
2022-08-22T04:52:00.142Z,100.00
2022-08-22T04:54:42.307Z,100.00
2022-08-22T04:57:23.433Z,100.00
2022-08-22T04:59:51.534Z,100.00
2022-08-22T05:02:24.339Z,100.00
2022-08-22T05:04:59.081Z,100.00
2022-08-22T05:07:36.362Z,100.00
2022-08-22T05:10:12.328Z,100.00
2022-08-22T05:12:44.469Z,100.00
2022-08-22T05:15:23.143Z,100.00
2022-08-22T05:17:54.349Z,100.00
2022-08-22T05:20:26.880Z,100.00
2022-08-22T05:23:01.036Z,100.00
2022-08-22T05:25:32.707Z,100.00
2022-08-22T05:28:12.050Z,89.25
2022-08-22T05:30:40.853Z,100.00
2022-08-22T05:33:17.284Z,91.13
2022-08-22T05:35:50.849Z,92.60
2022-08-22T05:38:27.071Z,73.97
2022-08-22T05:41:00.383Z,62.70
2022-08-22T05:43:28.645Z,64.19
2022-08-22T05:45:58.476Z,57.23
2022-08-22T05:48:37.543Z,54.16
2022-08-22T05:51:16.589Z,44.99
2022-08-22T05:53:50.743Z,45.46
2022-08-22T05:56:27.308Z,39.93
2022-08-22T05:59:00.002Z,38.60
2022-08-22T06:01:32.952Z,40.22
2022-08-22T06:04:07.590Z,40.04
2022-08-22T06:06:41.062Z,38.22
2022-08-22T06:09:17.924Z,38.22
2022-08-22T06:11:51.679Z,38.00
2022-08-22T06:14:30.780Z,37.16
2022-08-22T06:17:07.089Z,37.97
2022-08-22T06:19:38.306Z,38.80
2022-08-22T06:22:06.673Z,39.27
2022-08-22T06:24:39.332Z,39.54
2022-08-22T06:27:13.049Z,39.19
2022-08-22T06:29:45.085Z,40.36
2022-08-22T06:32:15.258Z,38.83
2022-08-22T06:34:46.217Z,38.36
2022-08-22T06:37:22.769Z,39.49
2022-08-22T06:39:55.090Z,40.27
2022-08-22T06:42:28.172Z,43.19
2022-08-22T06:45:01.886Z,45.89
2022-08-22T06:47:33.678Z,45.52
2022-08-22T06:50:16.570Z,49.64
2022-08-22T06:52:53.437Z,51.01
2022-08-22T06:55:26.502Z,52.26
2022-08-22T06:57:57.221Z,54.86
2022-08-22T07:00:25.450Z,53.27
2022-08-22T07:02:58.449Z,52.73
2022-08-22T07:05:28.645Z,50.16
2022-08-22T07:07:57.074Z,50.92
2022-08-22T07:10:26.378Z,50.49
2022-08-22T07:12:57.546Z,51.26
2022-08-22T07:15:34.374Z,50.62
2022-08-22T07:18:08.499Z,50.38
2022-08-22T07:20:41.906Z,47.66
2022-08-22T07:23:11.636Z,46.75
2022-08-22T07:25:52.870Z,48.43
2022-08-22T07:28:37.117Z,47.39
2022-08-22T07:31:38.003Z,47.84
2022-08-22T07:34:31.150Z,49.76
2022-08-22T07:37:02.832Z,51.24
2022-08-22T07:39:36.050Z,50.60
2022-08-22T07:42:11.935Z,50.08
2022-08-22T07:44:58.141Z,51.86
2022-08-22T07:47:32.920Z,48.01
2022-08-22T07:50:07.127Z,48.06
2022-08-22T07:52:43.456Z,46.83
2022-08-22T07:55:17.635Z,45.36
2022-08-22T07:57:51.164Z,42.19
2022-08-22T08:00:21.532Z,40.90
2022-08-22T08:02:52.075Z,42.76
2022-08-22T08:05:23.919Z,41.17
2022-08-22T08:07:55.611Z,42.52
2022-08-22T08:10:27.482Z,42.42
2022-08-22T08:13:03.352Z,40.58
2022-08-22T08:15:34.328Z,39.79
2022-08-22T08:18:05.881Z,38.13
2022-08-22T08:20:36.011Z,39.38
2022-08-22T08:23:05.194Z,38.35
2022-08-22T08:25:49.128Z,38.55
2022-08-22T08:28:35.192Z,41.80
2022-08-22T08:31:21.083Z,38.98
2022-08-22T08:33:51.454Z,37.41
2022-08-22T08:36:31.244Z,36.48
2022-08-22T08:39:12.336Z,34.84
2022-08-22T08:42:05.941Z,37.24
2022-08-22T08:45:03.387Z,36.46
2022-08-22T08:47:44.476Z,35.70
2022-08-22T08:50:24.719Z,36.10
2022-08-22T08:53:26.363Z,36.66
2022-08-22T08:55:58.907Z,36.37
2022-08-22T08:58:38.841Z,36.12
2022-08-22T09:01:27.691Z,37.96
2022-08-22T09:04:27.238Z,36.64
2022-08-22T09:07:26.472Z,38.65
2022-08-22T09:10:13.586Z,40.58
2022-08-22T09:13:12.378Z,40.83
2022-08-22T09:15:58.413Z,41.22
2022-08-22T09:19:03.260Z,41.40
2022-08-22T09:21:50.590Z,37.96
2022-08-22T09:24:52.321Z,36.43
2022-08-22T09:27:31.878Z,37.01
2022-08-22T09:30:08.512Z,37.61
2022-08-22T09:32:46.843Z,37.47
2022-08-22T09:35:26.674Z,38.40
2022-08-22T09:38:36.906Z,37.83
2022-08-22T09:41:22.114Z,35.54
2022-08-22T09:44:02.845Z,36.31
2022-08-22T09:46:36.704Z,36.64
2022-08-22T09:49:10.343Z,38.25
2022-08-22T09:51:46.255Z,37.20
2022-08-22T09:54:31.691Z,37.74
2022-08-22T09:57:13.859Z,39.72
2022-08-22T09:59:52.732Z,40.55
2022-08-22T10:02:31.750Z,39.89
2022-08-22T10:05:12.321Z,41.70
2022-08-22T10:08:13.787Z,44.27
2022-08-22T10:10:54.766Z,41.74
2022-08-22T10:13:37.215Z,38.94
2022-08-22T10:16:20.378Z,39.34
2022-08-22T10:18:54.766Z,41.01
2022-08-22T10:21:35.298Z,37.31
2022-08-22T10:24:25.095Z,35.81
2022-08-22T10:26:57.329Z,33.48
2022-08-22T10:29:45.343Z,37.53
2022-08-22T10:32:27.380Z,40.41
2022-08-22T10:34:58.539Z,38.37
2022-08-22T10:37:33.080Z,37.11
2022-08-22T10:40:08.809Z,36.48
2022-08-22T10:42:40.036Z,37.19
2022-08-22T10:45:23.766Z,36.91
2022-08-22T10:48:42.344Z,34.67
2022-08-22T10:51:19.890Z,38.15
2022-08-22T10:54:00.026Z,39.72
2022-08-22T10:56:35.886Z,40.68
2022-08-22T10:59:13.878Z,39.30
2022-08-22T11:01:51.086Z,39.47
2022-08-22T11:04:33.415Z,38.86
2022-08-22T11:07:15.574Z,36.66
2022-08-22T11:09:44.458Z,37.04
2022-08-22T11:12:22.159Z,36.19
2022-08-22T11:15:07.860Z,37.81
2022-08-22T11:18:06.171Z,35.34
2022-08-22T11:20:51.507Z,37.22
2022-08-22T11:23:30.643Z,40.35
2022-08-22T11:26:06.848Z,39.25
2022-08-22T11:29:07.857Z,36.10
2022-08-22T11:31:51.585Z,36.17
2022-08-22T11:34:36.516Z,34.88
2022-08-22T11:37:11.521Z,38.66
2022-08-22T11:39:45.191Z,38.00
2022-08-22T11:42:21.977Z,37.13
2022-08-22T11:44:55.537Z,36.52
2022-08-22T11:47:30.000Z,39.82
2022-08-22T11:50:13.351Z,39.14
2022-08-22T11:53:07.662Z,38.78
2022-08-22T11:55:39.473Z,38.35
2022-08-22T11:58:20.900Z,38.56
2022-08-22T12:00:56.352Z,37.72
2022-08-22T12:03:44.178Z,37.52
2022-08-22T12:06:34.680Z,40.71
2022-08-22T12:09:20.297Z,41.95
2022-08-22T12:12:07.380Z,43.80
2022-08-22T12:14:43.064Z,41.40
2022-08-22T12:17:55.916Z,41.40
2022-08-22T12:20:55.599Z,36.13
2022-08-22T12:23:48.799Z,34.19
2022-08-22T12:26:28.991Z,32.17
2022-08-22T12:29:15.496Z,30.55
2022-08-22T12:32:13.572Z,29.62
2022-08-22T12:34:57.827Z,29.05
2022-08-22T12:37:35.646Z,30.07
2022-08-22T12:40:29.213Z,31.80
2022-08-22T12:43:15.758Z,31.49
2022-08-22T12:46:05.442Z,29.58
2022-08-22T12:48:52.045Z,29.92
2022-08-22T12:51:29.856Z,30.62
2022-08-22T12:54:17.903Z,31.37
2022-08-22T12:56:58.011Z,36.03
2022-08-22T12:59:30.528Z,33.91
2022-08-22T13:02:02.747Z,31.31
2022-08-22T13:04:34.251Z,30.98
2022-08-22T13:07:22.828Z,30.66
2022-08-22T13:09:53.460Z,31.07
2022-08-22T13:12:26.671Z,33.73
2022-08-22T13:15:00.181Z,33.48
2022-08-22T13:17:28.967Z,34.56
2022-08-22T13:20:02.947Z,33.36
2022-08-22T13:22:35.832Z,32.71
2022-08-22T13:25:09.547Z,33.50
2022-08-22T13:27:51.058Z,34.19
2022-08-22T13:30:22.263Z,32.40
2022-08-22T13:32:53.230Z,32.84
2022-08-22T13:35:25.606Z,31.63
2022-08-22T13:38:04.403Z,32.05
2022-08-22T13:40:33.852Z,33.33
2022-08-22T13:43:06.158Z,33.92
2022-08-22T13:45:36.319Z,35.15
2022-08-22T13:48:11.350Z,35.76
2022-08-22T13:50:57.133Z,35.84
2022-08-22T13:53:33.101Z,35.88
2022-08-22T13:56:07.138Z,35.07
2022-08-22T13:58:46.325Z,34.53
2022-08-22T14:01:41.736Z,34.76
2022-08-22T14:04:26.678Z,36.64
2022-08-22T14:07:23.907Z,36.50
2022-08-22T14:09:57.716Z,36.91
2022-08-22T14:12:32.350Z,36.62
2022-08-22T14:15:03.343Z,38.22
2022-08-22T14:17:37.496Z,37.60
2022-08-22T14:20:14.145Z,37.30
2022-08-22T14:23:04.710Z,38.39
2022-08-22T14:25:39.862Z,37.72
2022-08-22T14:28:09.743Z,38.44
2022-08-22T14:30:58.271Z,36.95
2022-08-22T14:33:33.168Z,36.35
2022-08-22T14:36:04.507Z,35.72
2022-08-22T14:38:38.496Z,36.15
2022-08-22T14:41:14.114Z,37.17
2022-08-22T14:43:52.484Z,38.38
2022-08-22T14:46:27.702Z,39.28
2022-08-22T14:49:28.809Z,38.99
2022-08-22T14:52:02.608Z,37.17
2022-08-22T14:54:31.475Z,37.36
2022-08-22T14:57:02.840Z,37.19
2022-08-22T14:59:40.827Z,37.13
2022-08-22T15:02:13.797Z,41.04
2022-08-22T15:04:43.994Z,39.98
2022-08-22T15:07:21.260Z,39.26
2022-08-22T15:09:53.379Z,37.48
2022-08-22T15:12:28.590Z,37.08
2022-08-22T15:14:59.207Z,35.70
2022-08-22T15:17:44.290Z,35.81
2022-08-22T15:20:28.478Z,35.53
2022-08-22T15:22:59.636Z,36.39
2022-08-22T15:25:31.894Z,35.22
2022-08-22T15:28:06.558Z,35.06
2022-08-22T15:30:38.233Z,34.73
2022-08-22T15:33:18.833Z,33.20
2022-08-22T15:35:48.127Z,33.86
2022-08-22T15:38:31.007Z,33.17
2022-08-22T15:41:38.920Z,33.23
2022-08-22T15:44:15.137Z,33.80
2022-08-22T15:47:03.720Z,34.28
2022-08-22T15:49:33.282Z,35.01
2022-08-22T15:52:21.706Z,34.84
2022-08-22T15:55:18.376Z,35.30
2022-08-22T15:58:06.081Z,34.25
2022-08-22T16:00:43.369Z,34.00
2022-08-22T16:03:14.696Z,34.44
2022-08-22T16:05:55.407Z,33.90
2022-08-22T16:08:33.029Z,34.77
2022-08-22T16:11:30.954Z,40.54
2022-08-22T16:14:21.562Z,42.06
2022-08-22T16:17:01.558Z,44.04
2022-08-22T16:19:30.147Z,44.55
2022-08-22T16:22:10.704Z,44.54
2022-08-22T16:25:05.408Z,44.44
2022-08-22T16:27:33.959Z,43.67
2022-08-22T16:30:15.399Z,42.98
2022-08-22T16:32:56.285Z,43.71
2022-08-22T16:36:01.560Z,42.09
2022-08-22T16:38:37.516Z,41.56
2022-08-22T16:41:05.449Z,40.52
2022-08-22T16:43:33.581Z,39.47
2022-08-22T16:46:02.279Z,40.13
2022-08-22T16:48:39.405Z,39.81
2022-08-22T16:51:12.925Z,40.76
2022-08-22T16:54:03.370Z,41.24
2022-08-22T16:56:37.988Z,42.02
2022-08-22T16:59:24.003Z,42.79
2022-08-22T17:02:14.904Z,44.77
2022-08-22T17:04:54.775Z,46.07
2022-08-22T17:07:33.004Z,45.25
2022-08-22T17:10:17.398Z,47.52
2022-08-22T17:12:58.728Z,49.10
2022-08-22T17:15:34.774Z,49.92
2022-08-22T17:18:44.127Z,50.57
2022-08-22T17:21:25.627Z,50.79
2022-08-22T17:24:01.450Z,50.33
2022-08-22T17:26:45.844Z,49.84
2022-08-22T17:29:19.561Z,49.60
2022-08-22T17:31:54.343Z,49.30
2022-08-22T17:34:33.470Z,49.44
2022-08-22T17:37:09.592Z,50.33
2022-08-22T17:40:03.024Z,51.50
2022-08-22T17:42:48.778Z,51.17
2022-08-22T17:45:27.551Z,50.85
2022-08-22T17:48:03.743Z,50.88
2022-08-22T17:50:35.772Z,52.81
2022-08-22T17:53:10.027Z,51.67
2022-08-22T17:55:53.126Z,51.20
2022-08-22T17:58:35.707Z,52.84
2022-08-22T18:01:15.562Z,55.36
2022-08-22T18:03:50.197Z,54.29
2022-08-22T18:06:22.230Z,54.35
2022-08-22T18:11:49.410Z,56.11
2022-08-22T18:14:28.317Z,54.94
2022-08-22T18:16:59.039Z,53.82
2022-08-22T18:19:40.830Z,54.99
2022-08-22T18:22:12.798Z,58.25
2022-08-22T18:24:52.114Z,60.09
2022-08-22T18:27:34.131Z,61.72
2022-08-22T18:30:15.051Z,62.29
2022-08-22T18:32:50.131Z,61.33
2022-08-22T18:35:25.163Z,60.59
2022-08-22T18:38:01.564Z,62.08
2022-08-22T18:40:46.895Z,63.32
2022-08-22T18:43:23.842Z,65.52
2022-08-22T18:46:03.359Z,65.62
2022-08-22T18:48:54.330Z,66.06
2022-08-22T18:51:30.805Z,65.48
2022-08-22T18:54:24.487Z,66.60
2022-08-22T18:56:59.952Z,69.53
2022-08-22T18:59:42.746Z,69.14
2022-08-22T19:02:28.172Z,71.07
2022-08-22T19:05:20.937Z,70.23
2022-08-22T19:08:03.436Z,69.44
2022-08-22T19:11:08.716Z,70.75
2022-08-22T19:13:51.167Z,71.07
2022-08-22T19:16:44.764Z,70.33
2022-08-22T19:19:17.513Z,71.57
2022-08-22T19:22:22.346Z,70.95
2022-08-22T19:25:13.948Z,73.89
2022-08-22T19:27:45.446Z,73.92
2022-08-22T19:30:43.656Z,74.38
2022-08-22T19:33:13.637Z,74.12
2022-08-22T19:36:06.218Z,74.17
2022-08-22T19:38:56.651Z,73.30
2022-08-22T19:41:43.986Z,72.10
2022-08-22T19:44:31.200Z,71.79
2022-08-22T19:47:08.125Z,72.12
2022-08-22T19:49:38.124Z,72.40
2022-08-22T19:52:20.770Z,70.98
2022-08-22T19:54:57.599Z,70.12
2022-08-22T19:57:35.797Z,69.51
2022-08-22T20:00:10.705Z,73.46
2022-08-22T20:02:56.434Z,76.00
2022-08-22T20:05:31.477Z,75.38
2022-08-22T20:08:17.462Z,75.36
2022-08-22T20:10:58.575Z,74.96
2022-08-22T20:13:29.140Z,75.46
2022-08-22T20:16:16.111Z,76.18
2022-08-22T20:19:06.545Z,80.01
2022-08-22T20:21:40.630Z,83.64
2022-08-22T20:24:12.121Z,87.50
2022-08-22T20:26:57.594Z,88.15
2022-08-22T20:29:32.468Z,91.00
2022-08-22T20:32:01.387Z,89.34
2022-08-22T20:34:37.386Z,87.82
2022-08-22T20:37:27.214Z,87.82
2022-08-22T20:40:00.499Z,89.57
2022-08-22T20:42:32.649Z,91.29
2022-08-22T20:45:02.208Z,91.92
2022-08-22T20:47:41.851Z,95.16
2022-08-22T20:50:13.472Z,94.55
2022-08-22T20:52:54.207Z,94.96
2022-08-22T20:55:25.962Z,96.37
2022-08-22T20:58:03.398Z,95.94
2022-08-22T21:00:34.135Z,97.83
2022-08-22T21:03:06.359Z,97.16
2022-08-22T21:05:38.958Z,98.04
2022-08-22T21:08:09.363Z,97.78
2022-08-22T21:11:05.866Z,99.13
2022-08-22T21:13:35.730Z,99.99
2022-08-22T21:16:13.915Z,100.00
2022-08-22T21:18:43.340Z,100.00
2022-08-22T21:21:20.486Z,100.00
2022-08-22T21:23:51.200Z,100.00
2022-08-22T21:26:25.314Z,100.00
2022-08-22T21:28:59.920Z,100.00
2022-08-22T21:31:31.106Z,100.00
2022-08-22T21:33:59.030Z,100.00
2022-08-22T21:36:31.131Z,100.00
2022-08-22T21:39:03.541Z,100.00
2022-08-22T21:41:37.904Z,100.00
2022-08-22T21:44:19.780Z,100.00
2022-08-22T21:46:47.328Z,100.00
2022-08-22T21:49:23.986Z,100.00
2022-08-22T21:51:52.900Z,100.00
2022-08-22T21:54:39.490Z,100.00
2022-08-22T21:57:35.315Z,100.00
2022-08-22T22:00:07.291Z,100.00
2022-08-22T22:02:39.709Z,100.00
2022-08-22T22:05:11.420Z,100.00
2022-08-22T22:07:42.650Z,100.00
2022-08-22T22:10:14.543Z,100.00
2022-08-22T22:12:43.612Z,100.00
2022-08-22T22:15:14.846Z,100.00
2022-08-22T22:17:42.324Z,100.00
2022-08-22T22:20:10.699Z,100.00
2022-08-22T22:22:46.245Z,100.00
2022-08-22T22:25:40.915Z,100.00
2022-08-22T22:28:06.080Z,100.00
2022-08-22T22:30:33.770Z,100.00
2022-08-22T22:33:01.266Z,100.00
2022-08-22T22:35:28.857Z,100.00
2022-08-22T22:37:57.920Z,100.00
2022-08-22T22:40:26.066Z,100.00
2022-08-22T22:42:53.631Z,100.00
2022-08-22T22:45:21.136Z,100.00
2022-08-22T22:47:48.674Z,100.00
2022-08-22T22:50:16.270Z,100.00
2022-08-22T22:52:43.851Z,100.00
2022-08-22T22:55:13.142Z,100.00
2022-08-22T22:57:58.962Z,100.00
2022-08-22T23:00:31.046Z,100.00
2022-08-22T23:02:59.647Z,100.00
2022-08-22T23:05:27.148Z,100.00
2022-08-22T23:07:54.665Z,100.00
2022-08-22T23:10:23.535Z,100.00
2022-08-22T23:12:51.015Z,100.00
2022-08-22T23:15:18.474Z,100.00
2022-08-22T23:17:45.991Z,100.00
2022-08-22T23:20:14.078Z,100.00
2022-08-22T23:22:42.850Z,100.00
2022-08-22T23:25:10.516Z,100.00
2022-08-22T23:27:39.715Z,100.00
2022-08-22T23:30:10.408Z,100.00
2022-08-22T23:32:38.710Z,100.00
2022-08-22T23:35:07.915Z,100.00
2022-08-22T23:37:35.463Z,100.00
2022-08-22T23:40:03.682Z,100.00
2022-08-22T23:42:31.218Z,100.00
2022-08-22T23:45:00.099Z,100.00
2022-08-22T23:47:27.595Z,100.00
2022-08-22T23:49:55.075Z,100.00
2022-08-22T23:52:22.560Z,100.00
2022-08-22T23:54:54.336Z,100.00
2022-08-22T23:57:26.406Z,100.00
2022-08-22T23:59:57.662Z,100.00
